createdAt,value
2022-09-27T00:00:43.124Z,100001.00
2022-09-27T00:03:10.293Z,99997.00
2022-09-27T00:05:37.002Z,100005.00
2022-09-27T00:08:03.806Z,100005.00
2022-09-27T00:10:30.409Z,100003.00
2022-09-27T00:12:57.944Z,99998.00
2022-09-27T00:15:24.504Z,100002.00
2022-09-27T00:17:52.045Z,100002.00
2022-09-27T00:20:20.440Z,100011.00
2022-09-27T00:22:48.179Z,100005.00
2022-09-27T00:25:14.930Z,100011.00
2022-09-27T00:27:41.347Z,100008.00
2022-09-27T00:30:08.040Z,100002.00
2022-09-27T00:32:34.476Z,100000.00
2022-09-27T00:35:00.889Z,100009.00
2022-09-27T00:37:27.767Z,100001.00
2022-09-27T00:39:54.256Z,100012.00
2022-09-27T00:42:20.683Z,100006.00
2022-09-27T00:44:59.548Z,100016.00
2022-09-27T00:47:28.981Z,100011.00
2022-09-27T00:49:58.646Z,100007.00
2022-09-27T00:52:30.964Z,100006.00
2022-09-27T00:55:00.718Z,100003.00
2022-09-27T00:57:27.891Z,100004.00
2022-09-27T00:59:58.300Z,100015.00
2022-09-27T01:02:24.760Z,100007.00
2022-09-27T01:04:51.311Z,100010.00
2022-09-27T01:07:17.740Z,100007.00
2022-09-27T01:09:44.217Z,100018.00
2022-09-27T01:12:16.302Z,100014.00
2022-09-27T01:14:54.862Z,100016.00
2022-09-27T01:17:47.835Z,100007.00
2022-09-27T01:20:31.297Z,100011.00
2022-09-27T01:23:09.966Z,100011.00
2022-09-27T01:25:55.186Z,100016.00
2022-09-27T01:28:27.923Z,100007.00
2022-09-27T01:31:00.608Z,100003.00
2022-09-27T01:33:48.773Z,100013.00
2022-09-27T01:36:22.381Z,100012.00
2022-09-27T01:39:06.190Z,100015.00
2022-09-27T01:41:36.350Z,100014.00
2022-09-27T01:44:04.811Z,100010.00
2022-09-27T01:46:40.672Z,100018.00
2022-09-27T01:49:17.030Z,100013.00
2022-09-27T01:51:53.263Z,100012.00
2022-09-27T01:54:23.831Z,100015.00
2022-09-27T01:56:52.794Z,100016.00
2022-09-27T01:59:25.620Z,100021.00
2022-09-27T02:01:52.388Z,100014.00
2022-09-27T02:04:21.106Z,100015.00
2022-09-27T02:06:49.373Z,100003.00
2022-09-27T02:09:23.175Z,100013.00
2022-09-27T02:11:56.077Z,100017.00
2022-09-27T02:14:26.121Z,100004.00
2022-09-27T02:16:53.658Z,100010.00
2022-09-27T02:19:38.473Z,100000.00
2022-09-27T02:22:11.089Z,100004.00
2022-09-27T02:24:40.529Z,100007.00
2022-09-27T02:27:11.355Z,100002.00
2022-09-27T02:29:40.456Z,99995.00
2022-09-27T02:32:07.007Z,100005.00
2022-09-27T02:34:36.237Z,100001.00
2022-09-27T02:37:02.879Z,99999.00
2022-09-27T02:39:29.293Z,100002.00
2022-09-27T02:41:58.375Z,100007.00
2022-09-27T02:44:25.256Z,99998.00
2022-09-27T02:47:21.168Z,100000.00
2022-09-27T02:50:06.470Z,99992.00
2022-09-27T02:52:52.115Z,99992.00
2022-09-27T02:55:30.682Z,99987.00
2022-09-27T02:58:03.061Z,99986.00
2022-09-27T03:00:36.499Z,99988.00
2022-09-27T03:03:05.106Z,99981.00
2022-09-27T03:05:40.113Z,99985.00
2022-09-27T03:08:07.643Z,99986.00
2022-09-27T03:10:34.092Z,99988.00
2022-09-27T03:13:00.580Z,99985.00
2022-09-27T03:15:27.155Z,99977.00
2022-09-27T03:17:53.579Z,99981.00
2022-09-27T03:20:20.011Z,99979.00
2022-09-27T03:22:46.801Z,99987.00
2022-09-27T03:25:13.320Z,99990.00
2022-09-27T03:27:40.138Z,99991.00
2022-09-27T03:30:07.697Z,100000.00
2022-09-27T03:32:34.176Z,99988.00
2022-09-27T03:35:00.915Z,99982.00
2022-09-27T03:37:29.452Z,99986.00
2022-09-27T03:39:55.955Z,99991.00
2022-09-27T03:42:22.402Z,99983.00
2022-09-27T03:44:48.833Z,99986.00
2022-09-27T03:47:15.269Z,99987.00
2022-09-27T03:49:41.757Z,99993.00
2022-09-27T03:52:08.203Z,99991.00
2022-09-27T03:54:34.612Z,99988.00
2022-09-27T03:57:01.060Z,99986.00
2022-09-27T03:59:27.466Z,99988.00
2022-09-27T04:01:54.052Z,99984.00
2022-09-27T04:04:20.528Z,99981.00
2022-09-27T04:06:46.980Z,99977.00
2022-09-27T04:09:13.515Z,99976.00
2022-09-27T04:11:40.008Z,99974.00
2022-09-27T04:14:06.455Z,99980.00
2022-09-27T04:16:33.857Z,99977.00
2022-09-27T04:19:01.615Z,99980.00
2022-09-27T04:21:28.183Z,99970.00
2022-09-27T04:23:54.622Z,99979.00
2022-09-27T04:26:21.181Z,99973.00
2022-09-27T04:28:52.145Z,99968.00
2022-09-27T04:31:20.771Z,99970.00
2022-09-27T04:33:47.219Z,99970.00
2022-09-27T04:36:28.985Z,99977.00
2022-09-27T04:38:56.769Z,99969.00
2022-09-27T04:41:25.579Z,99977.00
2022-09-27T04:43:56.715Z,99970.00
2022-09-27T04:46:26.014Z,99990.00
2022-09-27T04:48:52.554Z,100006.00
2022-09-27T04:51:19.994Z,100015.00
2022-09-27T04:53:46.911Z,100013.00
2022-09-27T04:56:13.952Z,100007.00
2022-09-27T04:58:40.391Z,100003.00
2022-09-27T05:01:07.380Z,100011.00
2022-09-27T05:03:36.425Z,100010.00
2022-09-27T05:06:03.501Z,100018.00
2022-09-27T05:08:29.935Z,100004.00
2022-09-27T05:10:56.468Z,100008.00
2022-09-27T05:13:22.933Z,100000.00
2022-09-27T05:15:49.420Z,99995.00
2022-09-27T05:18:15.979Z,99976.00
2022-09-27T05:20:42.433Z,99980.00
2022-09-27T05:23:08.848Z,99977.00
2022-09-27T05:25:35.313Z,99973.00
2022-09-27T05:28:01.873Z,99973.00
2022-09-27T05:30:28.456Z,99979.00
2022-09-27T05:32:55.349Z,99994.00
2022-09-27T05:35:21.869Z,99980.00
2022-09-27T05:37:52.397Z,99996.00
2022-09-27T05:40:39.787Z,99987.00
2022-09-27T05:43:05.236Z,99988.00
2022-09-27T05:45:31.704Z,99991.00
2022-09-27T05:47:58.674Z,99982.00
2022-09-27T05:50:27.655Z,99985.00
2022-09-27T05:52:54.451Z,99985.00
2022-09-27T05:55:21.465Z,99975.00
2022-09-27T05:58:01.089Z,99972.00
2022-09-27T06:00:28.278Z,99977.00
2022-09-27T06:02:55.630Z,99982.00
2022-09-27T06:05:22.390Z,99981.00
2022-09-27T06:07:49.720Z,99980.00
2022-09-27T06:10:17.088Z,99986.00
2022-09-27T06:12:43.504Z,99984.00
2022-09-27T06:15:10.184Z,99977.00
2022-09-27T06:17:36.651Z,99982.00
2022-09-27T06:20:04.510Z,99979.00
2022-09-27T06:22:30.924Z,99978.00
2022-09-27T06:24:57.349Z,99973.00
2022-09-27T06:27:23.860Z,99979.00
2022-09-27T06:29:50.913Z,99981.00
2022-09-27T06:32:17.541Z,99989.00
2022-09-27T06:34:44.015Z,99993.00
2022-09-27T06:37:10.504Z,99994.00
2022-09-27T06:39:36.941Z,99984.00
2022-09-27T06:42:03.352Z,99997.00
2022-09-27T06:44:29.845Z,99993.00
2022-09-27T06:46:56.816Z,99993.00
2022-09-27T06:49:23.330Z,99992.00
2022-09-27T06:51:50.264Z,99994.00
2022-09-27T06:54:16.865Z,99987.00
2022-09-27T06:56:43.256Z,100002.00
2022-09-27T06:59:28.480Z,100003.00
2022-09-27T07:01:54.991Z,100010.00
2022-09-27T07:04:21.546Z,100011.00
2022-09-27T07:06:47.990Z,100021.00
2022-09-27T07:09:14.757Z,100021.00
2022-09-27T07:11:42.417Z,100016.00
2022-09-27T07:14:10.472Z,100026.00
2022-09-27T07:16:37.050Z,100035.00
2022-09-27T07:19:04.078Z,100030.00
2022-09-27T07:21:30.552Z,100029.00
2022-09-27T07:23:57.044Z,100037.00
2022-09-27T07:26:23.435Z,100030.00
2022-09-27T07:28:49.922Z,100036.00
2022-09-27T07:31:17.199Z,100050.00
2022-09-27T07:33:43.859Z,100062.00
2022-09-27T07:36:11.477Z,100062.00
2022-09-27T07:38:37.958Z,100057.00
2022-09-27T07:41:08.192Z,100058.00
2022-09-27T07:43:34.898Z,100054.00
2022-09-27T07:46:01.575Z,100053.00
2022-09-27T07:48:28.413Z,100050.00
2022-09-27T07:50:54.851Z,100049.00
2022-09-27T07:53:21.352Z,100050.00
2022-09-27T07:55:53.049Z,100057.00
2022-09-27T07:58:20.270Z,100059.00
2022-09-27T08:00:46.843Z,100067.00
2022-09-27T08:03:17.566Z,100068.00
2022-09-27T08:05:45.390Z,100068.00
2022-09-27T08:08:11.827Z,100074.00
2022-09-27T08:10:42.206Z,100080.00
2022-09-27T08:13:09.090Z,100085.00
2022-09-27T08:15:39.042Z,100077.00
2022-09-27T08:18:06.399Z,100079.00
2022-09-27T08:20:32.882Z,100082.00
2022-09-27T08:22:59.317Z,100078.00
2022-09-27T08:25:25.814Z,100081.00
2022-09-27T08:27:56.669Z,100081.00
2022-09-27T08:30:23.319Z,100084.00
2022-09-27T08:32:49.792Z,100081.00
2022-09-27T08:35:16.194Z,100075.00
2022-09-27T08:37:42.655Z,100070.00
2022-09-27T08:40:10.879Z,100074.00
2022-09-27T08:42:48.603Z,100079.00
2022-09-27T08:45:31.292Z,100074.00
2022-09-27T08:48:02.051Z,100066.00
2022-09-27T08:50:30.431Z,100075.00
2022-09-27T08:53:03.589Z,100069.00
2022-09-27T08:55:30.114Z,100073.00
2022-09-27T08:57:57.821Z,100077.00
2022-09-27T09:00:24.651Z,100068.00
2022-09-27T09:02:51.250Z,100077.00
2022-09-27T09:05:22.782Z,100081.00
2022-09-27T09:07:52.331Z,100084.00
2022-09-27T09:11:03.690Z,100076.00
2022-09-27T09:13:30.092Z,100070.00
2022-09-27T09:16:15.955Z,100080.00
2022-09-27T09:18:57.746Z,100078.00
2022-09-27T09:21:34.689Z,100067.00
2022-09-27T09:24:13.214Z,100068.00
2022-09-27T09:26:43.712Z,100068.00
2022-09-27T09:29:17.069Z,100067.00
2022-09-27T09:31:53.107Z,100067.00
2022-09-27T09:34:22.104Z,100065.00
2022-09-27T09:36:48.562Z,100063.00
2022-09-27T09:39:17.246Z,100067.00
2022-09-27T09:41:58.990Z,100082.00
2022-09-27T09:44:32.352Z,100059.00
2022-09-27T09:47:00.833Z,100062.00
2022-09-27T09:49:30.178Z,100075.00
2022-09-27T09:51:59.769Z,100065.00
2022-09-27T09:54:38.658Z,100077.00
2022-09-27T09:57:11.282Z,100065.00
2022-09-27T09:59:44.076Z,100064.00
2022-09-27T10:02:30.414Z,100067.00
2022-09-27T10:04:57.033Z,100068.00
2022-09-27T10:07:24.268Z,100058.00
2022-09-27T10:09:52.216Z,100060.00
2022-09-27T10:12:18.865Z,100062.00
2022-09-27T10:14:49.484Z,100058.00
2022-09-27T10:17:25.245Z,100055.00
2022-09-27T10:19:54.855Z,100049.00
2022-09-27T10:22:38.966Z,100056.00
2022-09-27T10:25:08.048Z,100055.00
2022-09-27T10:27:40.798Z,100044.00
2022-09-27T10:30:20.958Z,100046.00
2022-09-27T10:32:49.511Z,100043.00
2022-09-27T10:35:36.869Z,100034.00
2022-09-27T10:38:12.547Z,100031.00
2022-09-27T10:40:39.004Z,100023.00
2022-09-27T10:43:27.498Z,100025.00
2022-09-27T10:46:25.355Z,100032.00
2022-09-27T10:49:14.007Z,100034.00
2022-09-27T10:51:40.885Z,100031.00
2022-09-27T10:54:18.752Z,100030.00
2022-09-27T10:56:45.224Z,100026.00
2022-09-27T10:59:18.632Z,100021.00
2022-09-27T11:01:46.020Z,100018.00
2022-09-27T11:04:21.120Z,100020.00
2022-09-27T11:06:48.688Z,100020.00
2022-09-27T11:09:26.529Z,100014.00
2022-09-27T11:12:05.674Z,100023.00
2022-09-27T11:14:33.066Z,100015.00
2022-09-27T11:17:13.035Z,100013.00
2022-09-27T11:19:48.760Z,100011.00
2022-09-27T11:22:27.023Z,100018.00
2022-09-27T11:25:31.582Z,100014.00
2022-09-27T11:28:01.125Z,100011.00
2022-09-27T11:30:33.463Z,100005.00
2022-09-27T11:32:59.879Z,100015.00
2022-09-27T11:35:29.139Z,100011.00
2022-09-27T11:38:48.373Z,100013.00
2022-09-27T11:41:23.732Z,100006.00
2022-09-27T11:43:56.026Z,100005.00
2022-09-27T11:46:31.979Z,100004.00
2022-09-27T11:49:24.153Z,100003.00
2022-09-27T11:52:12.074Z,100003.00
2022-09-27T11:54:50.915Z,100002.00
2022-09-27T11:57:23.219Z,100004.00
2022-09-27T11:59:52.642Z,99999.00
2022-09-27T12:02:19.092Z,99998.00
2022-09-27T12:04:45.601Z,99985.00
2022-09-27T12:07:19.919Z,99989.00
2022-09-27T12:09:48.647Z,99980.00
2022-09-27T12:12:20.510Z,99976.00
2022-09-27T12:14:58.514Z,99968.00
2022-09-27T12:17:40.688Z,99986.00
2022-09-27T12:20:10.426Z,99964.00
2022-09-27T12:22:58.646Z,99968.00
2022-09-27T12:25:29.997Z,99969.00
2022-09-27T12:28:05.546Z,99968.00
2022-09-27T12:30:34.289Z,99969.00
2022-09-27T12:33:22.988Z,99969.00
2022-09-27T12:35:51.716Z,99968.00
2022-09-27T12:38:21.328Z,99968.00
2022-09-27T12:40:56.098Z,99968.00
2022-09-27T12:43:32.076Z,99958.00
2022-09-27T12:45:58.445Z,99946.00
2022-09-27T12:48:24.847Z,99955.00
2022-09-27T12:50:54.266Z,99953.00
2022-09-27T12:53:27.095Z,99944.00
2022-09-27T12:56:10.655Z,99951.00
2022-09-27T12:58:56.161Z,99947.00
2022-09-27T13:01:32.117Z,99958.00
2022-09-27T13:04:17.451Z,99961.00
2022-09-27T13:07:03.577Z,99955.00
2022-09-27T13:09:30.892Z,99960.00
2022-09-27T13:12:08.454Z,99957.00
2022-09-27T13:14:39.091Z,99960.00
2022-09-27T13:17:06.418Z,99958.00
2022-09-27T13:19:35.817Z,99957.00
2022-09-27T13:22:04.180Z,99958.00
2022-09-27T13:24:30.613Z,99953.00
2022-09-27T13:27:01.086Z,99947.00
2022-09-27T13:29:29.083Z,99942.00
2022-09-27T13:31:55.504Z,99935.00
2022-09-27T13:34:38.601Z,99937.00
2022-09-27T13:37:23.893Z,99930.00
2022-09-27T13:39:50.317Z,99920.00
2022-09-27T13:42:27.188Z,99916.00
2022-09-27T13:45:01.398Z,99912.00
2022-09-27T13:47:38.283Z,99915.00
2022-09-27T13:50:24.978Z,99918.00
2022-09-27T13:52:59.747Z,99924.00
2022-09-27T13:55:42.652Z,99901.00
2022-09-27T13:58:24.492Z,99909.00
2022-09-27T14:00:52.749Z,99907.00
2022-09-27T14:03:24.888Z,99912.00
2022-09-27T14:05:59.438Z,99910.00
2022-09-27T14:08:33.448Z,99906.00
2022-09-27T14:11:01.795Z,99906.00
2022-09-27T14:13:29.447Z,99903.00
2022-09-27T14:15:56.804Z,99898.00
2022-09-27T14:18:23.443Z,99896.00
2022-09-27T14:20:52.213Z,99889.00
2022-09-27T14:23:21.838Z,99900.00
2022-09-27T14:25:49.178Z,99887.00
2022-09-27T14:28:23.107Z,99886.00
2022-09-27T14:31:04.335Z,99882.00
2022-09-27T14:33:31.688Z,99877.00
2022-09-27T14:36:21.687Z,99877.00
2022-09-27T14:38:50.295Z,99869.00
2022-09-27T14:41:17.226Z,99869.00
2022-09-27T14:43:44.695Z,99864.00
2022-09-27T14:46:24.698Z,99866.00
2022-09-27T14:48:51.146Z,99860.00
2022-09-27T14:51:19.505Z,99867.00
2022-09-27T14:53:48.211Z,99855.00
2022-09-27T14:56:19.892Z,99862.00
2022-09-27T14:58:48.013Z,99847.00
2022-09-27T15:01:16.316Z,99852.00
2022-09-27T15:03:44.841Z,99852.00
2022-09-27T15:06:11.692Z,99853.00
2022-09-27T15:08:38.788Z,99860.00
2022-09-27T15:11:06.959Z,99852.00
2022-09-27T15:13:34.125Z,99841.00
2022-09-27T15:16:01.049Z,99846.00
2022-09-27T15:18:33.657Z,99835.00
2022-09-27T15:21:00.549Z,99834.00
2022-09-27T15:23:28.227Z,99829.00
2022-09-27T15:26:04.606Z,99834.00
2022-09-27T15:28:32.149Z,99824.00
2022-09-27T15:30:58.746Z,99829.00
2022-09-27T15:33:26.945Z,99829.00
2022-09-27T15:35:57.783Z,99826.00
2022-09-27T15:38:25.073Z,99826.00
2022-09-27T15:40:51.562Z,99821.00
2022-09-27T15:43:39.356Z,99826.00
2022-09-27T15:46:26.077Z,99821.00
2022-09-27T15:49:11.419Z,99810.00
2022-09-27T15:51:42.273Z,99810.00
2022-09-27T15:54:08.766Z,99809.00
2022-09-27T15:56:35.478Z,99811.00
2022-09-27T15:59:02.132Z,99800.00
2022-09-27T16:01:29.013Z,99806.00
2022-09-27T16:03:57.928Z,99800.00
2022-09-27T16:06:25.968Z,99803.00
2022-09-27T16:08:52.423Z,99801.00
2022-09-27T16:11:18.902Z,99800.00
2022-09-27T16:13:45.459Z,99800.00
2022-09-27T16:16:16.266Z,99792.00
2022-09-27T16:18:43.267Z,99806.00
2022-09-27T16:21:09.940Z,99834.00
2022-09-27T16:23:36.669Z,99819.00
2022-09-27T16:26:03.217Z,99813.00
2022-09-27T16:28:29.649Z,99795.00
2022-09-27T16:31:00.298Z,99790.00
2022-09-27T16:33:26.805Z,99793.00
2022-09-27T16:35:53.609Z,99785.00
2022-09-27T16:38:20.049Z,99787.00
2022-09-27T16:40:46.545Z,99788.00
2022-09-27T16:43:13.436Z,99784.00
2022-09-27T16:45:39.891Z,99781.00
2022-09-27T16:48:06.326Z,99782.00
2022-09-27T16:50:51.507Z,99778.00
2022-09-27T16:53:18.279Z,99774.00
2022-09-27T16:55:44.753Z,99778.00
2022-09-27T16:58:11.223Z,99776.00
2022-09-27T17:00:38.985Z,99777.00
2022-09-27T17:03:05.626Z,99779.00
2022-09-27T17:05:32.055Z,99775.00
2022-09-27T17:07:58.832Z,99783.00
2022-09-27T17:10:25.278Z,99778.00
2022-09-27T17:12:52.175Z,99776.00
2022-09-27T17:15:18.602Z,99781.00
2022-09-27T17:17:48.354Z,99775.00
2022-09-27T17:20:14.993Z,99776.00
2022-09-27T17:22:41.468Z,99782.00
2022-09-27T17:25:08.091Z,99779.00
2022-09-27T17:27:34.572Z,99779.00
2022-09-27T17:30:01.057Z,99776.00
2022-09-27T17:32:27.698Z,99777.00
2022-09-27T17:34:54.284Z,99773.00
2022-09-27T17:37:20.815Z,99770.00
2022-09-27T17:39:47.271Z,99772.00
2022-09-27T17:42:13.768Z,99764.00
2022-09-27T17:44:40.414Z,99758.00
2022-09-27T17:47:25.826Z,99754.00
2022-09-27T17:50:10.885Z,99755.00
2022-09-27T17:52:37.512Z,99761.00
2022-09-27T17:55:04.379Z,99761.00
2022-09-27T17:57:31.798Z,99754.00
2022-09-27T17:59:58.342Z,99754.00
2022-09-27T18:02:25.412Z,99773.00
2022-09-27T18:04:51.971Z,99774.00
2022-09-27T18:07:19.885Z,99768.00
2022-09-27T18:09:46.674Z,99765.00
2022-09-27T18:12:13.818Z,99776.00
2022-09-27T18:14:40.332Z,99769.00
2022-09-27T18:17:06.968Z,99763.00
2022-09-27T18:19:35.707Z,99763.00
2022-09-27T18:22:02.343Z,99756.00
2022-09-27T18:24:29.072Z,99759.00
2022-09-27T18:26:57.150Z,99766.00
2022-09-27T18:29:23.563Z,99763.00
2022-09-27T18:31:50.084Z,99757.00
2022-09-27T18:34:17.874Z,99756.00
2022-09-27T18:36:44.888Z,99756.00
2022-09-27T18:39:17.571Z,99759.00
2022-09-27T18:41:45.420Z,99749.00
2022-09-27T18:44:13.345Z,99754.00
2022-09-27T18:46:40.054Z,99753.00
2022-09-27T18:49:07.840Z,99748.00
2022-09-27T18:51:37.322Z,99747.00
2022-09-27T18:54:05.265Z,99745.00
2022-09-27T18:56:31.711Z,99745.00
2022-09-27T18:58:58.190Z,99754.00
2022-09-27T19:01:25.680Z,99749.00
2022-09-27T19:03:52.532Z,99752.00
2022-09-27T19:06:20.099Z,99759.00
2022-09-27T19:08:47.085Z,99765.00
2022-09-27T19:11:13.498Z,99769.00
2022-09-27T19:13:50.228Z,99773.00
2022-09-27T19:16:18.008Z,99770.00
2022-09-27T19:18:44.554Z,99768.00
2022-09-27T19:21:12.003Z,99761.00
2022-09-27T19:23:38.714Z,99757.00
2022-09-27T19:26:07.032Z,99762.00
2022-09-27T19:28:34.822Z,99777.00
2022-09-27T19:31:04.621Z,99769.00
2022-09-27T19:33:34.827Z,99767.00
2022-09-27T19:36:02.106Z,99766.00
2022-09-27T19:38:32.365Z,99759.00
2022-09-27T19:40:59.092Z,99760.00
2022-09-27T19:43:25.800Z,99755.00
2022-09-27T19:45:52.342Z,99756.00
2022-09-27T19:48:19.171Z,99761.00
2022-09-27T19:50:55.479Z,99757.00
2022-09-27T19:53:22.102Z,99757.00
2022-09-27T19:55:55.227Z,99773.00
2022-09-27T19:58:21.741Z,99779.00
2022-09-27T20:00:48.296Z,99779.00
2022-09-27T20:03:14.827Z,99790.00
2022-09-27T20:05:41.285Z,99794.00
2022-09-27T20:08:07.925Z,99786.00
2022-09-27T20:10:34.416Z,99791.00
2022-09-27T20:13:00.923Z,99787.00
2022-09-27T20:15:27.337Z,99768.00
2022-09-27T20:17:53.915Z,99746.00
2022-09-27T20:20:20.601Z,99741.00
2022-09-27T20:22:47.051Z,99734.00
2022-09-27T20:25:13.711Z,99723.00
2022-09-27T20:27:40.277Z,99724.00
2022-09-27T20:30:07.054Z,99728.00
2022-09-27T20:32:35.047Z,99727.00
2022-09-27T20:35:01.575Z,99726.00
2022-09-27T20:37:28.209Z,99731.00
2022-09-27T20:39:54.784Z,99737.00
2022-09-27T20:42:21.253Z,99727.00
2022-09-27T20:44:51.890Z,99722.00
2022-09-27T20:47:23.037Z,99722.00
2022-09-27T20:49:49.734Z,99719.00
2022-09-27T20:52:16.184Z,99716.00
2022-09-27T20:54:42.737Z,99729.00
2022-09-27T20:57:09.212Z,99726.00
2022-09-27T20:59:35.673Z,99721.00
2022-09-27T21:02:02.148Z,99728.00
2022-09-27T21:04:30.292Z,99723.00
2022-09-27T21:06:58.393Z,99730.00
2022-09-27T21:09:24.817Z,99727.00
2022-09-27T21:11:54.162Z,99732.00
2022-09-27T21:14:20.628Z,99727.00
2022-09-27T21:16:47.164Z,99727.00
2022-09-27T21:19:13.991Z,99722.00
2022-09-27T21:21:40.568Z,99737.00
2022-09-27T21:24:07.159Z,99732.00
2022-09-27T21:26:33.864Z,99735.00
2022-09-27T21:29:01.041Z,99730.00
2022-09-27T21:31:29.513Z,99731.00
2022-09-27T21:33:59.016Z,99731.00
2022-09-27T21:36:36.242Z,99729.00
2022-09-27T21:39:03.581Z,99726.00
2022-09-27T21:41:30.062Z,99729.00
2022-09-27T21:43:57.414Z,99733.00
2022-09-27T21:46:25.178Z,99730.00
2022-09-27T21:48:52.833Z,99724.00
2022-09-27T21:51:20.168Z,99723.00
2022-09-27T21:53:51.295Z,99723.00
2022-09-27T21:56:18.010Z,99724.00
2022-09-27T21:58:44.453Z,99723.00
2022-09-27T22:01:12.070Z,99728.00
2022-09-27T22:03:39.222Z,99733.00
2022-09-27T22:06:06.355Z,99724.00
2022-09-27T22:08:32.983Z,99727.00
2022-09-27T22:11:00.278Z,99724.00
2022-09-27T22:13:26.764Z,99724.00
2022-09-27T22:15:53.396Z,99723.00
2022-09-27T22:18:20.286Z,99723.00
2022-09-27T22:20:46.796Z,99714.00
2022-09-27T22:23:13.217Z,99711.00
2022-09-27T22:25:40.984Z,99715.00
2022-09-27T22:28:08.388Z,99722.00
2022-09-27T22:30:35.041Z,99721.00
2022-09-27T22:33:01.503Z,99712.00
2022-09-27T22:35:27.927Z,99717.00
2022-09-27T22:37:54.775Z,99711.00
2022-09-27T22:40:21.249Z,99719.00
2022-09-27T22:42:48.113Z,99722.00
2022-09-27T22:45:14.721Z,99712.00
2022-09-27T22:47:41.144Z,99712.00
2022-09-27T22:50:07.759Z,99713.00
2022-09-27T22:52:34.145Z,99711.00
2022-09-27T22:55:00.582Z,99705.00
2022-09-27T22:57:27.116Z,99708.00
2022-09-27T22:59:53.529Z,99710.00
2022-09-27T23:02:20.157Z,99702.00
2022-09-27T23:04:46.592Z,99713.00
2022-09-27T23:07:13.167Z,99707.00
2022-09-27T23:09:39.538Z,99701.00
2022-09-27T23:12:07.370Z,99701.00
2022-09-27T23:14:33.765Z,99706.00
2022-09-27T23:17:00.971Z,99706.00
2022-09-27T23:19:27.443Z,99702.00
2022-09-27T23:21:54.180Z,99703.00
2022-09-27T23:24:20.786Z,99697.00
2022-09-27T23:27:07.234Z,99689.00
2022-09-27T23:29:33.662Z,99689.00
2022-09-27T23:32:00.866Z,99680.00
2022-09-27T23:34:27.317Z,99683.00
2022-09-27T23:36:53.762Z,99686.00
2022-09-27T23:39:22.202Z,99683.00
2022-09-27T23:41:48.670Z,99678.00
2022-09-27T23:44:15.546Z,99684.00
2022-09-27T23:46:42.714Z,99678.00
2022-09-27T23:49:09.307Z,99683.00
2022-09-27T23:51:36.364Z,99684.00
2022-09-27T23:54:04.436Z,99683.00
2022-09-27T23:56:30.862Z,99685.00
2022-09-27T23:58:57.717Z,99681.00
